Time;durP1;ratioP1;P1;durP2;ratioP2;P2;SDS_P1;SDS_P2;PMS_P1;PMS_P2;Temp;Humidity;BMP_temperature;BMP_pressure;BME280_temperature;BME280_humidity;BME280_pressure;Samples;Min_cycle;Max_cycle;Signal;HPM_P1;HPM_P2
2022/12/18 00:02:12;;;;;;;31.63;14.87;;;;;;;-145.23;100.00;58621.06;5004156;28;20251;-53
2022/12/18 00:04:38;;;;;;;29.10;15.67;;;;;;;-145.23;100.00;58621.06;5003728;28;20793;-54
2022/12/18 00:07:05;;;;;;;29.83;15.87;;;;;;;-145.23;100.00;58621.06;5008074;28;20252;-54
2022/12/18 00:09:33;;;;;;;31.00;16.93;;;;;;;-145.23;100.00;58621.06;5002390;28;20721;-54
2022/12/18 00:12:00;;;;;;;30.87;17.80;;;;;;;-145.23;100.00;58621.06;5012219;28;20233;-54
2022/12/18 00:14:26;;;;;;;32.33;17.30;;;;;;;-145.23;100.00;58621.06;5000619;28;20233;-54
2022/12/18 00:16:53;;;;;;;33.43;16.40;;;;;;;-145.23;100.00;58621.06;4998854;28;20262;-55
2022/12/18 00:19:19;;;;;;;34.10;17.00;;;;;;;-145.23;100.00;58621.06;5001000;28;20237;-54
2022/12/18 00:21:46;;;;;;;30.93;15.57;;;;;;;-145.23;100.00;58621.06;4999498;28;20330;-54
2022/12/18 00:24:12;;;;;;;30.27;15.13;;;;;;;-145.23;100.00;58621.06;4999462;28;20721;-55
2022/12/18 00:26:40;;;;;;;33.63;16.47;;;;;;;-145.23;100.00;58621.06;5020490;28;20313;-55
2022/12/18 00:29:09;;;;;;;33.73;14.80;;;;;;;-145.23;100.00;58621.06;5026539;28;20234;-54
2022/12/18 00:31:35;;;;;;;25.27;13.50;;;;;;;-145.23;100.00;58621.06;5019444;28;20317;-54
2022/12/18 00:34:02;;;;;;;28.77;14.87;;;;;;;-145.23;100.00;58621.06;5022738;28;20231;-55
2022/12/18 00:36:31;;;;;;;31.00;15.73;;;;;;;-145.23;100.00;58621.06;5026274;28;20245;-53
2022/12/18 00:38:59;;;;;;;28.67;15.40;;;;;;;-145.23;100.00;58621.06;5020626;28;20245;-54
2022/12/18 00:44:14;;;;;;;28.03;14.17;;;;;;;-145.23;100.00;58621.06;5029030;28;20237;-53
2022/12/18 00:46:41;;;;;;;26.80;15.10;;;;;;;-145.23;100.00;58621.06;5027769;28;20330;-54
2022/12/18 00:49:08;;;;;;;30.63;15.60;;;;;;;-145.23;100.00;58621.06;5028325;28;20245;-55
2022/12/18 00:51:34;;;;;;;28.10;15.40;;;;;;;-145.23;100.00;58621.06;5034809;28;20238;-55
2022/12/18 00:54:01;;;;;;;31.50;16.70;;;;;;;-145.23;100.00;58621.06;5028786;28;20226;-54
2022/12/18 00:56:28;;;;;;;28.13;14.83;;;;;;;-145.23;100.00;58621.06;5024117;28;20239;-53
2022/12/18 00:58:55;;;;;;;28.60;13.97;;;;;;;-145.23;100.00;58621.06;5027972;28;20238;-55
2022/12/18 01:01:23;;;;;;;29.23;14.73;;;;;;;-145.23;100.00;58621.06;5024722;28;20614;-54
2022/12/18 01:03:49;;;;;;;27.40;15.20;;;;;;;-145.23;100.00;58621.06;5027687;28;20242;-54
2022/12/18 01:06:16;;;;;;;29.83;15.10;;;;;;;-145.23;100.00;58621.06;5026617;28;20244;-54
2022/12/18 01:08:44;;;;;;;28.90;15.70;;;;;;;-145.23;100.00;58621.06;5027556;28;20234;-54
2022/12/18 01:11:13;;;;;;;28.83;16.13;;;;;;;-145.23;100.00;58621.06;5027408;28;20231;-54
2022/12/18 01:13:40;;;;;;;30.40;14.67;;;;;;;-145.23;100.00;58621.06;5026082;28;20900;-54
2022/12/18 01:16:07;;;;;;;36.57;18.70;;;;;;;-145.23;100.00;58621.06;5025762;28;20328;-53
2022/12/18 01:18:34;;;;;;;28.90;15.73;;;;;;;-145.23;100.00;58621.06;5022347;28;20259;-55
2022/12/18 01:21:01;;;;;;;27.63;15.30;;;;;;;-145.23;100.00;58621.06;5026765;28;20302;-54
2022/12/18 01:23:28;;;;;;;28.30;15.63;;;;;;;-145.23;100.00;58621.06;5026150;28;20234;-53
2022/12/18 01:25:54;;;;;;;30.00;14.80;;;;;;;-145.23;100.00;58621.06;5027217;28;20327;-55
2022/12/18 01:28:21;;;;;;;30.77;15.47;;;;;;;-145.23;100.00;58621.06;5015764;28;20238;-53
2022/12/18 01:30:48;;;;;;;29.70;15.03;;;;;;;-145.23;100.00;58621.06;5005900;28;20243;-54
2022/12/18 01:33:14;;;;;;;28.33;15.60;;;;;;;-145.23;100.00;58621.06;5006211;28;20248;-53
2022/12/18 01:35:43;;;;;;;31.67;16.03;;;;;;;-145.23;100.00;58621.06;5007574;28;20357;-54
2022/12/18 01:38:09;;;;;;;32.67;16.07;;;;;;;-145.23;100.00;58621.06;5008734;28;20232;-53
2022/12/18 01:40:36;;;;;;;25.00;14.53;;;;;;;-145.23;100.00;58621.06;5006969;28;20243;-54
2022/12/18 01:43:03;;;;;;;29.33;14.53;;;;;;;-145.23;100.00;58621.06;5004388;28;20242;-54
2022/12/18 01:45:31;;;;;;;32.20;16.57;;;;;;;-145.23;100.00;58621.06;4995968;28;20238;-54
2022/12/18 01:48:00;;;;;;;29.10;15.40;;;;;;;-145.23;100.00;58621.06;5000103;28;20239;-54
2022/12/18 01:50:30;;;;;;;34.17;16.97;;;;;;;-145.23;100.00;58621.06;5004198;28;20242;-53
2022/12/18 01:53:01;;;;;;;31.97;16.13;;;;;;;-145.23;100.00;58621.06;5001205;28;20721;-54
2022/12/18 01:55:30;;;;;;;30.73;16.67;;;;;;;-145.23;100.00;58621.06;5001296;28;20239;-54
2022/12/18 01:57:59;;;;;;;30.43;16.67;;;;;;;-145.23;100.00;58621.06;5001353;28;20242;-53
2022/12/18 02:00:27;;;;;;;26.23;15.73;;;;;;;-145.23;100.00;58621.06;4998870;28;20258;-53
2022/12/18 02:02:54;;;;;;;34.63;16.83;;;;;;;-145.23;100.00;58621.06;4999356;28;20233;-53
2022/12/18 02:05:28;;;;;;;29.50;14.87;;;;;;;-145.23;100.00;58621.06;5008909;28;20245;-54
2022/12/18 02:08:07;;;;;;;28.40;15.43;;;;;;;-145.23;100.00;58621.06;5005686;28;20230;-54
2022/12/18 02:10:36;;;;;;;29.73;14.93;;;;;;;-145.23;100.00;58621.06;5006331;28;20683;-54
2022/12/18 02:13:09;;;;;;;32.00;17.80;;;;;;;-145.23;100.00;58621.06;5004965;28;20238;-54
2022/12/18 02:15:40;;;;;;;35.07;16.60;;;;;;;-145.23;100.00;58621.06;5007350;28;20231;-53
2022/12/18 02:18:09;;;;;;;24.23;14.53;;;;;;;-145.23;100.00;58621.06;5008646;28;20257;-54
2022/12/18 02:20:39;;;;;;;31.87;17.33;;;;;;;-145.23;100.00;58621.06;5003097;28;20325;-54
2022/12/18 02:23:13;;;;;;;27.47;14.43;;;;;;;-145.23;100.00;58621.06;5000358;28;20331;-54
2022/12/18 02:26:05;;;;;;;32.30;16.17;;;;;;;-145.23;100.00;58621.06;5022113;28;20234;-54
2022/12/18 02:28:36;;;;;;;29.23;15.50;;;;;;;-145.23;100.00;58621.06;5023181;28;20234;-54
2022/12/18 02:31:05;;;;;;;32.77;16.60;;;;;;;-145.23;100.00;58621.06;5041568;28;20231;-54
2022/12/18 02:33:33;;;;;;;33.13;16.37;;;;;;;-145.23;100.00;58621.06;5028674;28;20239;-54
2022/12/18 02:36:00;;;;;;;27.20;15.50;;;;;;;-145.23;100.00;58621.06;5027334;28;20230;-54
2022/12/18 02:38:28;;;;;;;38.63;16.83;;;;;;;-145.23;100.00;58621.06;5029002;28;20371;-54
2022/12/18 02:40:55;;;;;;;35.27;16.80;;;;;;;-145.23;100.00;58621.06;5037364;28;20241;-57
2022/12/18 02:43:23;;;;;;;31.70;16.83;;;;;;;-145.23;100.00;58621.06;5025767;28;20243;-54
2022/12/18 02:45:53;;;;;;;40.17;16.87;;;;;;;-145.23;100.00;58621.06;5030863;28;20247;-54
2022/12/18 02:48:24;;;;;;;29.20;15.87;;;;;;;-145.23;100.00;58621.06;5034085;28;20230;-54
2022/12/18 02:50:55;;;;;;;37.97;18.03;;;;;;;-145.23;100.00;58621.06;5019331;28;20241;-54
2022/12/18 02:53:25;;;;;;;32.07;19.67;;;;;;;-145.23;100.00;58621.06;5007087;28;20779;-53
2022/12/18 02:56:00;;;;;;;29.07;15.40;;;;;;;-145.23;100.00;58621.06;5003694;28;20227;-54
2022/12/18 02:58:33;;;;;;;30.33;15.70;;;;;;;-145.23;100.00;58621.06;5016580;28;20310;-54
2022/12/18 03:01:03;;;;;;;35.10;15.73;;;;;;;-145.23;100.00;58621.06;5006361;28;20238;-54
2022/12/18 03:03:33;;;;;;;28.70;15.00;;;;;;;-145.23;100.00;58621.06;5005438;28;20282;-55
2022/12/18 03:06:03;;;;;;;28.27;15.37;;;;;;;-145.23;100.00;58621.06;5005394;28;20651;-54
2022/12/18 03:08:32;;;;;;;27.13;15.03;;;;;;;-145.23;100.00;58621.06;5004802;28;20227;-54
2022/12/18 03:11:03;;;;;;;30.43;15.33;;;;;;;-145.23;100.00;58621.06;5005356;28;20235;-54
2022/12/18 03:13:33;;;;;;;30.83;15.93;;;;;;;-145.23;100.00;58621.06;5000411;28;20243;-54
2022/12/18 03:16:00;;;;;;;42.17;16.23;;;;;;;-145.23;100.00;58621.06;5001153;28;20600;-55
2022/12/18 03:18:30;;;;;;;31.93;15.83;;;;;;;-145.23;100.00;58621.06;5003825;28;20232;-54
2022/12/18 03:21:00;;;;;;;26.90;14.73;;;;;;;-145.23;100.00;58621.06;5003122;28;20628;-54
2022/12/18 03:23:28;;;;;;;26.50;14.90;;;;;;;-145.23;100.00;58621.06;5011029;28;20764;-53
2022/12/18 03:25:59;;;;;;;27.67;13.73;;;;;;;-145.23;100.00;58621.06;5004707;28;20239;-57
2022/12/18 03:28:28;;;;;;;30.03;15.40;;;;;;;-145.23;100.00;58621.06;5002080;28;20235;-54
2022/12/18 03:30:58;;;;;;;30.77;14.60;;;;;;;-145.23;100.00;58621.06;5010291;28;20235;-54
2022/12/18 03:33:28;;;;;;;38.13;17.87;;;;;;;-145.23;100.00;58621.06;5021627;28;20368;-55
2022/12/18 03:35:55;;;;;;;29.10;14.43;;;;;;;-145.23;100.00;58621.06;5017948;28;20230;-54
2022/12/18 03:38:21;;;;;;;33.97;17.37;;;;;;;-145.23;100.00;58621.06;5009364;28;20231;-54
2022/12/18 03:40:58;;;;;;;34.00;17.03;;;;;;;-145.23;100.00;58621.06;5007837;28;20318;-54
2022/12/18 03:43:36;;;;;;;27.63;15.87;;;;;;;-145.23;100.00;58621.06;5005349;28;20242;-58
2022/12/18 03:46:09;;;;;;;33.33;16.97;;;;;;;-145.23;100.00;58621.06;5003624;28;20242;-54
2022/12/18 03:48:40;;;;;;;33.77;16.60;;;;;;;-145.23;100.00;58621.06;4999102;28;20235;-54
2022/12/18 03:51:10;;;;;;;33.40;16.83;;;;;;;-145.23;100.00;58621.06;5005414;28;20335;-54
2022/12/18 03:53:41;;;;;;;26.87;13.37;;;;;;;-145.23;100.00;58621.06;5005455;28;20240;-53
2022/12/18 03:56:09;;;;;;;28.23;15.90;;;;;;;-145.23;100.00;58621.06;5007801;28;20231;-54
2022/12/18 03:58:38;;;;;;;29.03;16.17;;;;;;;-145.23;100.00;58621.06;5005357;28;20244;-55
2022/12/18 04:01:10;;;;;;;29.07;15.27;;;;;;;-145.23;100.00;58621.06;5007350;28;20295;-54
2022/12/18 04:03:38;;;;;;;28.07;15.70;;;;;;;-145.23;100.00;58621.06;5005325;28;20238;-56
2022/12/18 04:06:07;;;;;;;25.97;15.10;;;;;;;-145.23;100.00;58621.06;5008571;28;20285;-54
2022/12/18 04:08:35;;;;;;;32.83;16.50;;;;;;;-145.23;100.00;58621.06;5009036;28;20239;-54
2022/12/18 04:11:02;;;;;;;35.60;16.07;;;;;;;-145.23;100.00;58621.06;5008431;28;20299;-55
2022/12/18 04:13:32;;;;;;;41.47;19.07;;;;;;;-145.23;100.00;58621.06;5010195;28;20243;-54
2022/12/18 04:15:59;;;;;;;37.17;18.50;;;;;;;-145.23;100.00;58621.06;5003004;28;20238;-53
2022/12/18 04:18:27;;;;;;;35.57;17.00;;;;;;;-145.23;100.00;58621.06;5006843;28;20262;-55
2022/12/18 04:20:54;;;;;;;36.03;18.57;;;;;;;-145.23;100.00;58621.06;5007453;28;20292;-54
2022/12/18 04:23:23;;;;;;;43.67;22.37;;;;;;;-145.23;100.00;58621.06;5025712;28;20234;-53
2022/12/18 04:25:50;;;;;;;42.73;18.57;;;;;;;-145.23;100.00;58621.06;5016391;28;20241;-54
2022/12/18 04:28:17;;;;;;;45.57;21.23;;;;;;;-145.23;100.00;58621.06;5006975;28;20235;-54
2022/12/18 04:30:44;;;;;;;41.07;19.90;;;;;;;-145.23;100.00;58621.06;5008768;28;20244;-53
2022/12/18 04:33:12;;;;;;;46.50;20.07;;;;;;;-145.23;100.00;58621.06;5005367;28;20901;-54
2022/12/18 04:35:40;;;;;;;44.40;21.33;;;;;;;-145.23;100.00;58621.06;5001714;28;20295;-54
2022/12/18 04:38:09;;;;;;;44.63;19.60;;;;;;;-145.23;100.00;58621.06;5003942;28;20301;-54
2022/12/18 04:40:37;;;;;;;41.67;19.30;;;;;;;-145.23;100.00;58621.06;5006158;28;20235;-55
2022/12/18 04:43:04;;;;;;;45.43;19.40;;;;;;;-145.23;100.00;58621.06;5006517;28;20253;-55
2022/12/18 04:45:31;;;;;;;37.40;17.47;;;;;;;-145.23;100.00;58621.06;5007602;28;20250;-54
2022/12/18 04:47:58;;;;;;;46.40;19.80;;;;;;;-145.23;100.00;58621.06;5007912;28;20286;-54
2022/12/18 04:50:25;;;;;;;48.47;21.57;;;;;;;-145.23;100.00;58621.06;5008106;28;20318;-55
2022/12/18 04:52:54;;;;;;;49.83;21.63;;;;;;;-145.23;100.00;58621.06;5011132;28;22028;-54
2022/12/18 04:55:25;;;;;;;45.40;20.40;;;;;;;-145.23;100.00;58621.06;5007525;28;20692;-54
2022/12/18 04:57:52;;;;;;;50.97;23.27;;;;;;;-145.23;100.00;58621.06;5016424;28;20239;-54
2022/12/18 05:00:19;;;;;;;56.13;23.13;;;;;;;-145.23;100.00;58621.06;5006174;28;20240;-54
2022/12/18 05:02:46;;;;;;;49.50;22.83;;;;;;;-145.23;100.00;58621.06;5003322;28;20247;-53
2022/12/18 05:05:14;;;;;;;49.93;24.13;;;;;;;-145.23;100.00;58621.06;5005063;28;20235;-53
2022/12/18 05:07:40;;;;;;;51.33;23.87;;;;;;;-145.23;100.00;58621.06;5000403;28;20485;-54
2022/12/18 05:10:10;;;;;;;60.87;24.23;;;;;;;-145.23;100.00;58621.06;4997463;28;20228;-54
2022/12/18 05:12:57;;;;;;;46.60;24.50;;;;;;;-145.23;100.00;58621.06;5004927;28;20823;-55
2022/12/18 05:15:25;;;;;;;54.87;23.20;;;;;;;-145.23;100.00;58621.06;5019077;28;20232;-54
2022/12/18 05:17:51;;;;;;;57.57;24.03;;;;;;;-145.23;100.00;58621.06;5009333;28;20269;-54
2022/12/18 05:20:19;;;;;;;50.20;21.90;;;;;;;-145.23;100.00;58621.06;5004017;28;20704;-55
2022/12/18 05:22:46;;;;;;;56.97;22.40;;;;;;;-145.23;100.00;58621.06;5004268;28;20599;-53
2022/12/18 05:25:14;;;;;;;56.70;25.37;;;;;;;-145.23;100.00;58621.06;5005338;28;20271;-55
2022/12/18 05:27:41;;;;;;;50.07;22.93;;;;;;;-145.23;100.00;58621.06;5006913;28;20243;-54
2022/12/18 05:30:09;;;;;;;43.27;21.97;;;;;;;-145.23;100.00;58621.06;5004475;28;20234;-54
2022/12/18 05:32:36;;;;;;;49.10;25.50;;;;;;;-145.23;100.00;58621.06;5003880;28;20284;-54
2022/12/18 05:35:03;;;;;;;49.53;22.73;;;;;;;-145.23;100.00;58621.06;5005896;28;20826;-54
2022/12/18 05:37:30;;;;;;;47.50;23.97;;;;;;;-145.23;100.00;58621.06;5001996;28;20239;-54
2022/12/18 05:39:57;;;;;;;54.00;26.40;;;;;;;-145.23;100.00;58621.06;5002254;28;20928;-55
2022/12/18 05:42:25;;;;;;;48.57;22.73;;;;;;;-145.23;100.00;58621.06;5004355;28;20278;-53
2022/12/18 05:44:52;;;;;;;50.53;22.83;;;;;;;-145.23;100.00;58621.06;5003855;28;20297;-54
2022/12/18 05:47:20;;;;;;;45.83;21.83;;;;;;;-145.23;100.00;58621.06;5003346;28;20741;-53
2022/12/18 05:49:46;;;;;;;50.83;22.50;;;;;;;-145.23;100.00;58621.06;5004929;28;20235;-54
2022/12/18 05:52:13;;;;;;;49.67;22.93;;;;;;;-145.23;100.00;58621.06;5002512;28;20241;-54
2022/12/18 05:54:40;;;;;;;56.20;23.03;;;;;;;-145.23;100.00;58621.06;5004088;28;20995;-54
2022/12/18 05:57:07;;;;;;;57.30;24.27;;;;;;;-145.23;100.00;58621.06;5003811;28;20231;-55
2022/12/18 05:59:36;;;;;;;50.47;23.33;;;;;;;-145.23;100.00;58621.06;5002880;28;20635;-54
2022/12/18 06:02:03;;;;;;;54.87;24.33;;;;;;;-145.23;100.00;58621.06;5006495;28;20610;-54
2022/12/18 06:04:32;;;;;;;49.60;23.57;;;;;;;-145.23;100.00;58621.06;5001488;28;20791;-54
2022/12/18 06:06:59;;;;;;;55.60;25.37;;;;;;;-145.23;100.00;58621.06;4998968;28;20232;-53
2022/12/18 06:09:26;;;;;;;48.23;24.13;;;;;;;-145.23;100.00;58621.06;5003462;28;20232;-55
2022/12/18 06:11:53;;;;;;;51.03;23.83;;;;;;;-145.23;100.00;58621.06;5005594;28;20323;-54
2022/12/18 06:14:20;;;;;;;51.83;25.67;;;;;;;-145.23;100.00;58621.06;5004870;28;20716;-54
2022/12/18 06:16:48;;;;;;;46.17;24.30;;;;;;;-145.23;100.00;58621.06;5005511;28;20604;-54
2022/12/18 06:19:17;;;;;;;48.80;22.80;;;;;;;-145.23;100.00;58621.06;5004662;28;20915;-54
2022/12/18 06:21:44;;;;;;;53.90;24.77;;;;;;;-145.23;100.00;58621.06;5004131;28;20232;-54
2022/12/18 06:24:11;;;;;;;47.60;25.07;;;;;;;-145.23;100.00;58621.06;5001423;28;20238;-55
2022/12/18 06:26:39;;;;;;;50.83;24.87;;;;;;;-145.23;100.00;58621.06;5000773;28;20314;-53
2022/12/18 06:29:06;;;;;;;54.30;25.63;;;;;;;-145.23;100.00;58621.06;5004594;28;20321;-54
2022/12/18 06:31:33;;;;;;;55.70;25.63;;;;;;;-145.23;100.00;58621.06;5002944;28;20247;-54
2022/12/18 06:34:03;;;;;;;65.73;26.20;;;;;;;-145.23;100.00;58621.06;5005080;28;20240;-53
2022/12/18 06:36:30;;;;;;;50.73;24.33;;;;;;;-145.23;100.00;58621.06;5003215;28;20246;-54
2022/12/18 06:38:57;;;;;;;49.63;23.40;;;;;;;-145.23;100.00;58621.06;5003842;28;20258;-54
2022/12/18 06:41:27;;;;;;;47.10;24.17;;;;;;;-145.23;100.00;58621.06;5001828;28;20244;-53
2022/12/18 06:43:55;;;;;;;57.33;24.33;;;;;;;-145.23;100.00;58621.06;4997873;28;20984;-54
2022/12/18 06:46:22;;;;;;;55.30;25.50;;;;;;;-145.23;100.00;58621.06;5012158;28;20744;-55
2022/12/18 06:48:50;;;;;;;57.07;25.40;;;;;;;-145.23;100.00;58621.06;5016501;28;20326;-53
2022/12/18 06:51:20;;;;;;;59.53;25.00;;;;;;;-145.23;100.00;58621.06;5019321;28;20236;-54
2022/12/18 06:53:47;;;;;;;53.63;24.47;;;;;;;-145.23;100.00;58621.06;5023416;28;20289;-54
2022/12/18 06:56:14;;;;;;;55.40;25.97;;;;;;;-145.23;100.00;58621.06;5021580;28;20245;-53
2022/12/18 06:58:42;;;;;;;59.03;24.77;;;;;;;-145.23;100.00;58621.06;5023893;28;20268;-55
2022/12/18 07:01:10;;;;;;;54.73;25.00;;;;;;;-145.23;100.00;58621.06;5024364;28;20238;-54
2022/12/18 07:03:37;;;;;;;48.37;24.43;;;;;;;-145.23;100.00;58621.06;5024475;28;20597;-54
2022/12/18 07:06:05;;;;;;;49.10;24.10;;;;;;;-145.23;100.00;58621.06;5015928;28;20266;-54
2022/12/18 07:08:33;;;;;;;56.67;24.63;;;;;;;-145.23;100.00;58621.06;5010808;28;20252;-54
2022/12/18 07:11:03;;;;;;;58.00;25.87;;;;;;;-145.23;100.00;58621.06;5002428;28;20223;-54
2022/12/18 07:13:30;;;;;;;46.27;22.93;;;;;;;-145.23;100.00;58621.06;5003314;28;20238;-54
2022/12/18 07:16:04;;;;;;;57.40;26.03;;;;;;;-145.23;100.00;58621.06;5000761;28;20238;-54
2022/12/18 07:18:31;;;;;;;57.40;25.77;;;;;;;-145.23;100.00;58621.06;5007936;28;20290;-53
2022/12/18 07:20:58;;;;;;;49.83;22.50;;;;;;;-145.23;100.00;58621.06;5002546;28;20273;-54
2022/12/18 07:23:25;;;;;;;53.40;25.83;;;;;;;-145.23;100.00;58621.06;5004915;28;20592;-55
2022/12/18 07:25:53;;;;;;;49.93;23.67;;;;;;;-145.23;100.00;58621.06;5003474;28;20240;-53
2022/12/18 07:28:20;;;;;;;39.27;22.70;;;;;;;-145.23;100.00;58621.06;4998038;28;20227;-53
2022/12/18 07:30:47;;;;;;;49.80;22.60;;;;;;;-145.23;100.00;58621.06;5003436;28;20231;-54
2022/12/18 07:33:14;;;;;;;47.37;22.27;;;;;;;-145.23;100.00;58621.06;5001841;28;20737;-54
2022/12/18 07:35:41;;;;;;;54.10;22.50;;;;;;;-145.23;100.00;58621.06;5005036;28;20841;-54
2022/12/18 07:38:08;;;;;;;46.57;22.17;;;;;;;-145.23;100.00;58621.06;5004033;28;20231;-53
2022/12/18 07:40:35;;;;;;;42.10;21.33;;;;;;;-145.23;100.00;58621.06;5003445;28;20314;-54
2022/12/18 07:43:03;;;;;;;36.13;20.23;;;;;;;-145.23;100.00;58621.06;5001902;28;20235;-54
2022/12/18 07:45:33;;;;;;;38.73;18.90;;;;;;;-145.23;100.00;58621.06;5004778;28;20266;-54
2022/12/18 07:48:00;;;;;;;37.10;20.43;;;;;;;-145.23;100.00;58621.06;4995904;28;20584;-56
2022/12/18 07:50:27;;;;;;;47.23;21.80;;;;;;;-145.23;100.00;58621.06;5004849;28;20232;-53
2022/12/18 07:52:54;;;;;;;34.93;18.77;;;;;;;-145.23;100.00;58621.06;5002986;28;20239;-54
2022/12/18 07:55:21;;;;;;;39.00;19.00;;;;;;;-145.23;100.00;58621.06;5017642;28;20230;-54
2022/12/18 07:57:48;;;;;;;35.23;17.30;;;;;;;-145.23;100.00;58621.06;5024835;28;20317;-54
2022/12/18 08:00:17;;;;;;;37.07;18.73;;;;;;;-145.23;100.00;58621.06;5024878;28;20235;-53
2022/12/18 08:02:44;;;;;;;33.07;16.73;;;;;;;-145.23;100.00;58621.06;5023763;28;20297;-54
2022/12/18 08:05:11;;;;;;;36.83;17.57;;;;;;;-145.23;100.00;58621.06;5017605;28;20879;-54
2022/12/18 08:07:37;;;;;;;29.60;16.20;;;;;;;-145.23;100.00;58621.06;5016640;28;20227;-55
2022/12/18 08:10:05;;;;;;;38.77;18.27;;;;;;;-145.23;100.00;58621.06;5022920;28;20234;-54
2022/12/18 08:12:32;;;;;;;39.53;19.20;;;;;;;-145.23;100.00;58621.06;5011559;28;20236;-54
2022/12/18 08:14:59;;;;;;;39.50;18.27;;;;;;;-145.23;100.00;58621.06;5012847;28;20252;-55
2022/12/18 08:17:27;;;;;;;40.10;18.30;;;;;;;-145.23;100.00;58621.06;5018930;28;20755;-54
2022/12/18 08:19:54;;;;;;;38.20;20.33;;;;;;;-145.23;100.00;58621.06;5004797;28;20230;-54
2022/12/18 08:22:21;;;;;;;34.00;18.80;;;;;;;-145.23;100.00;58621.06;5005775;28;20245;-54
2022/12/18 08:24:48;;;;;;;35.20;16.93;;;;;;;-145.23;100.00;58621.06;5002636;28;20231;-53
2022/12/18 08:27:15;;;;;;;34.40;17.93;;;;;;;-145.23;100.00;58621.06;5002503;28;20763;-54
2022/12/18 08:29:42;;;;;;;37.47;18.17;;;;;;;-145.23;100.00;58621.06;5005177;28;20771;-55
2022/12/18 08:32:09;;;;;;;35.57;18.77;;;;;;;-145.23;100.00;58621.06;5001996;28;20231;-54
2022/12/18 08:34:37;;;;;;;41.03;18.53;;;;;;;-145.23;100.00;58621.06;5003124;28;20232;-55
2022/12/18 08:37:04;;;;;;;40.90;19.53;;;;;;;-145.23;100.00;58621.06;5002724;28;20230;-54
2022/12/18 08:39:31;;;;;;;32.57;18.33;;;;;;;-145.23;100.00;58621.06;5001063;28;20534;-53
2022/12/18 08:44:43;;;;;;;40.97;19.93;;;;;;;-145.23;100.00;58621.06;5004386;28;20272;-54
2022/12/18 08:47:10;;;;;;;41.63;19.73;;;;;;;-145.23;100.00;58621.06;5001589;28;20315;-54
2022/12/18 08:49:38;;;;;;;35.03;18.13;;;;;;;-145.23;100.00;58621.06;5002339;28;20748;-55
2022/12/18 08:52:05;;;;;;;36.20;17.30;;;;;;;-145.23;100.00;58621.06;5004744;28;20657;-53
2022/12/18 08:54:32;;;;;;;31.27;18.30;;;;;;;-145.23;100.00;58621.06;4999066;28;20239;-54
2022/12/18 08:56:59;;;;;;;36.53;18.93;;;;;;;-145.23;100.00;58621.06;5001855;28;20231;-54
2022/12/18 08:59:29;;;;;;;35.73;19.33;;;;;;;-145.23;100.00;58621.06;5008135;28;20265;-55
2022/12/18 09:01:56;;;;;;;35.20;16.93;;;;;;;-145.23;100.00;58621.06;5000566;28;20259;-55
2022/12/18 09:04:23;;;;;;;31.50;17.10;;;;;;;-145.23;100.00;58621.06;5007088;28;20228;-54
2022/12/18 09:06:54;;;;;;;30.70;18.40;;;;;;;-145.23;100.00;58621.06;5026505;28;20308;-54
2022/12/18 09:09:21;;;;;;;36.43;18.77;;;;;;;-145.23;100.00;58621.06;5006802;28;20317;-54
2022/12/18 09:11:48;;;;;;;35.77;16.33;;;;;;;-145.23;100.00;58621.06;5004226;28;20605;-54
2022/12/18 09:14:15;;;;;;;33.00;17.30;;;;;;;-145.23;100.00;58621.06;5005780;28;20306;-54
2022/12/18 09:16:42;;;;;;;34.90;17.23;;;;;;;-145.23;100.00;58621.06;5003208;28;20252;-53
2022/12/18 09:19:10;;;;;;;33.20;16.53;;;;;;;-145.23;100.00;58621.06;5007672;28;20262;-54
2022/12/18 09:21:39;;;;;;;32.57;16.97;;;;;;;-145.23;100.00;58621.06;5006826;28;20245;-54
2022/12/18 09:24:13;;;;;;;35.13;17.43;;;;;;;-145.23;100.00;58621.06;5004686;28;20294;-54
2022/12/18 09:26:39;;;;;;;27.57;15.30;;;;;;;-145.23;100.00;58621.06;5005163;28;20236;-53
2022/12/18 09:29:08;;;;;;;29.50;15.70;;;;;;;-145.23;100.00;58621.06;5003870;28;20236;-53
2022/12/18 09:31:36;;;;;;;33.73;17.40;;;;;;;-145.23;100.00;58621.06;5005354;28;20258;-58
2022/12/18 09:34:05;;;;;;;27.40;15.73;;;;;;;-145.23;100.00;58621.06;5003088;28;20231;-54
2022/12/18 09:36:32;;;;;;;29.63;14.73;;;;;;;-145.23;100.00;58621.06;5003785;28;20256;-54
2022/12/18 09:38:59;;;;;;;28.23;16.97;;;;;;;-145.23;100.00;58621.06;5005460;28;20779;-55
2022/12/18 09:41:42;;;;;;;32.17;15.97;;;;;;;-145.23;100.00;58621.06;5006210;28;20248;-54
2022/12/18 09:44:16;;;;;;;31.00;17.43;;;;;;;-145.23;100.00;58621.06;4999821;28;20243;-56
2022/12/18 09:46:46;;;;;;;29.03;16.77;;;;;;;-145.23;100.00;58621.06;5000020;28;20738;-54
2022/12/18 09:49:16;;;;;;;26.53;15.43;;;;;;;-145.23;100.00;58621.06;5011585;28;20314;-55
2022/12/18 09:51:46;;;;;;;29.80;17.50;;;;;;;-145.23;100.00;58621.06;5000717;28;20227;-55
2022/12/18 09:54:16;;;;;;;30.93;16.43;;;;;;;-145.23;100.00;58621.06;5005101;28;20946;-54
2022/12/18 09:56:45;;;;;;;29.57;15.70;;;;;;;-145.23;100.00;58621.06;5005146;28;20231;-54
2022/12/18 09:59:21;;;;;;;28.60;16.13;;;;;;;-145.23;100.00;58621.06;5013718;28;20235;-55
2022/12/18 10:01:48;;;;;;;31.00;16.43;;;;;;;-145.23;100.00;58621.06;5004193;28;20318;-54
2022/12/18 10:04:14;;;;;;;32.33;15.67;;;;;;;-145.23;100.00;58621.06;5006338;28;21056;-54
2022/12/18 10:06:45;;;;;;;31.77;16.30;;;;;;;-145.23;100.00;58621.06;5005682;28;20310;-54
2022/12/18 10:09:18;;;;;;;35.63;17.10;;;;;;;-145.23;100.00;58621.06;5005769;28;20310;-54
2022/12/18 10:11:51;;;;;;;28.60;15.07;;;;;;;-145.23;100.00;58621.06;5005173;28;20231;-54
2022/12/18 10:14:24;;;;;;;31.53;16.33;;;;;;;-145.23;100.00;58621.06;5002519;28;20244;-54
2022/12/18 10:16:59;;;;;;;28.63;15.87;;;;;;;-145.23;100.00;58621.06;5002190;28;20391;-53
2022/12/18 10:19:41;;;;;;;30.77;15.73;;;;;;;-145.23;100.00;58621.06;5000600;28;20316;-54
2022/12/18 10:22:17;;;;;;;26.17;15.37;;;;;;;-145.23;100.00;58621.06;5000283;28;20288;-53
2022/12/18 10:24:49;;;;;;;31.60;15.37;;;;;;;-145.23;100.00;58621.06;5003748;28;20231;-53
2022/12/18 10:27:19;;;;;;;28.43;15.63;;;;;;;-145.23;100.00;58621.06;5001707;28;20231;-55
2022/12/18 10:29:47;;;;;;;30.50;15.93;;;;;;;-145.23;100.00;58621.06;5005775;28;20235;-54
2022/12/18 10:32:19;;;;;;;28.70;15.30;;;;;;;-145.23;100.00;58621.06;5002947;28;20236;-54
2022/12/18 10:34:47;;;;;;;31.93;16.13;;;;;;;-145.23;100.00;58621.06;5001582;28;20884;-55
2022/12/18 10:37:17;;;;;;;32.57;16.57;;;;;;;-145.23;100.00;58621.06;5005626;28;20738;-54
2022/12/18 10:39:44;;;;;;;28.77;14.83;;;;;;;-145.23;100.00;58621.06;5005778;28;20235;-54
2022/12/18 10:42:15;;;;;;;29.97;14.67;;;;;;;-145.23;100.00;58621.06;5003795;28;20239;-53
2022/12/18 10:44:43;;;;;;;32.07;16.63;;;;;;;-145.23;100.00;58621.06;5006072;28;20231;-53
2022/12/18 10:47:13;;;;;;;32.63;17.47;;;;;;;-145.23;100.00;58621.06;5005129;28;20228;-54
2022/12/18 10:49:47;;;;;;;32.73;17.00;;;;;;;-145.23;100.00;58621.06;5007401;28;20667;-55
2022/12/18 10:52:17;;;;;;;36.60;18.20;;;;;;;-145.23;100.00;58621.06;5007582;28;20652;-54
2022/12/18 10:54:49;;;;;;;30.70;15.83;;;;;;;-145.23;100.00;58621.06;5007741;28;20771;-56
2022/12/18 10:57:18;;;;;;;36.93;17.17;;;;;;;-145.23;100.00;58621.06;5004074;28;20259;-54
2022/12/18 10:59:54;;;;;;;31.50;16.90;;;;;;;-145.23;100.00;58621.06;5004958;28;20256;-55
2022/12/18 11:02:32;;;;;;;35.47;17.70;;;;;;;-145.23;100.00;58621.06;5001623;28;20803;-53
2022/12/18 11:04:59;;;;;;;34.47;17.13;;;;;;;-145.23;100.00;58621.06;4996903;28;20313;-56
2022/12/18 11:07:26;;;;;;;33.63;17.33;;;;;;;-145.23;100.00;58621.06;5006551;28;20243;-56